Time;durP1;ratioP1;P1;durP2;ratioP2;P2;SDS_P1;SDS_P2;PMS_P1;PMS_P2;Temp;Humidity;BMP_temperature;BMP_pressure;BME280_temperature;BME280_humidity;BME280_pressure;Samples;Min_cycle;Max_cycle;Signal;HPM_P1;HPM_P2
2021/08/05 00:02:25;;;;;;;6.15;2.45;;;;;;;;;;5124062;27;20047;-72
2021/08/05 00:04:50;;;;;;;6.50;2.50;;;;;;;;;;5118883;27;20025;-72
2021/08/05 00:07:16;;;;;;;4.50;2.40;;;;;;;;;;5129511;27;20023;-72
2021/08/05 00:09:43;;;;;;;3.97;2.25;;;;;;;;;;5127805;27;20038;-73
2021/08/05 00:12:10;;;;;;;6.43;2.45;;;;;;;;;;5112946;27;20038;-72
2021/08/05 00:14:38;;;;;;;3.67;2.35;;;;;;;;;;5126236;27;20181;-73
2021/08/05 00:17:04;;;;;;;4.40;2.60;;;;;;;;;;5112852;27;20051;-72
2021/08/05 00:19:29;;;;;;;8.50;2.42;;;;;;;;;;5122430;27;20055;-72
2021/08/05 00:21:54;;;;;;;6.93;2.80;;;;;;;;;;5124481;27;20151;-72
2021/08/05 00:24:20;;;;;;;5.43;2.42;;;;;;;;;;5116134;27;20326;-72
2021/08/05 00:26:45;;;;;;;4.60;3.00;;;;;;;;;;5131235;27;20076;-72
2021/08/05 00:29:11;;;;;;;9.35;3.08;;;;;;;;;;5122191;27;20379;-72
2021/08/05 00:31:36;;;;;;;5.40;2.97;;;;;;;;;;5127024;27;20110;-72
2021/08/05 00:34:01;;;;;;;5.97;2.80;;;;;;;;;;5113222;28;20060;-72
2021/08/05 00:36:27;;;;;;;11.60;2.95;;;;;;;;;;5128749;27;20173;-72
2021/08/05 00:38:52;;;;;;;5.70;2.60;;;;;;;;;;5116091;27;20050;-72
2021/08/05 00:41:19;;;;;;;6.10;2.65;;;;;;;;;;5130540;27;20030;-72
2021/08/05 00:43:44;;;;;;;5.22;2.53;;;;;;;;;;5119434;27;20016;-73
2021/08/05 00:46:10;;;;;;;8.77;3.03;;;;;;;;;;5118678;28;20034;-72
2021/08/05 00:48:35;;;;;;;6.88;2.70;;;;;;;;;;5114834;28;20035;-72
2021/08/05 00:51:00;;;;;;;5.30;2.60;;;;;;;;;;5130776;28;20029;-72
2021/08/05 00:53:27;;;;;;;6.80;2.60;;;;;;;;;;5129137;28;20050;-72
2021/08/05 00:55:53;;;;;;;7.68;2.97;;;;;;;;;;5113474;28;20055;-73
2021/08/05 00:58:19;;;;;;;7.25;2.90;;;;;;;;;;5126213;28;20417;-72
2021/08/05 01:00:49;;;;;;;8.63;3.00;;;;;;;;;;5116736;28;20019;-72
2021/08/05 01:03:27;;;;;;;4.53;3.05;;;;;;;;;;5125111;28;20011;-72
2021/08/05 01:06:03;;;;;;;8.02;3.28;;;;;;;;;;5111080;28;20406;-72
2021/08/05 01:08:29;;;;;;;4.13;2.95;;;;;;;;;;5115135;28;20085;-72
2021/08/05 01:11:06;;;;;;;6.07;2.63;;;;;;;;;;5130679;28;20019;-73
2021/08/05 01:13:40;;;;;;;6.03;2.65;;;;;;;;;;5130559;28;20102;-72
2021/08/05 01:16:15;;;;;;;8.00;2.67;;;;;;;;;;5111867;28;20035;-72
2021/08/05 01:18:45;;;;;;;4.50;2.38;;;;;;;;;;5127389;28;20476;-72
2021/08/05 01:21:55;;;;;;;5.00;2.60;;;;;;;;;;5110731;28;20027;-72
2021/08/05 01:24:24;;;;;;;3.95;2.65;;;;;;;;;;5078043;28;20046;-73
2021/08/05 01:26:49;;;;;;;4.13;2.50;;;;;;;;;;5110671;28;20076;-72
2021/08/05 01:29:16;;;;;;;7.40;3.10;;;;;;;;;;5119205;28;20027;-73
2021/08/05 01:31:43;;;;;;;6.65;2.63;;;;;;;;;;5126442;28;20714;-73
2021/08/05 01:34:13;;;;;;;7.70;2.70;;;;;;;;;;5116200;28;20529;-72
2021/08/05 01:36:43;;;;;;;5.60;2.90;;;;;;;;;;5120289;28;20023;-72
2021/08/05 01:39:09;;;;;;;8.00;2.92;;;;;;;;;;5111523;28;20524;-72
2021/08/05 01:41:36;;;;;;;8.55;2.38;;;;;;;;;;5111690;28;20030;-72
2021/08/05 01:44:05;;;;;;;5.20;2.58;;;;;;;;;;5129249;28;20084;-72
2021/08/05 01:46:31;;;;;;;9.60;2.75;;;;;;;;;;5116813;28;20046;-72
2021/08/05 01:48:57;;;;;;;6.30;2.80;;;;;;;;;;5116044;28;20038;-72
2021/08/05 01:51:24;;;;;;;5.50;2.90;;;;;;;;;;5120546;27;20026;-72
2021/08/05 01:53:51;;;;;;;5.03;2.05;;;;;;;;;;5116886;27;20020;-72
2021/08/05 01:56:24;;;;;;;7.93;2.90;;;;;;;;;;5130695;27;20038;-72
2021/08/05 01:58:50;;;;;;;4.50;2.60;;;;;;;;;;5121020;27;20157;-73
2021/08/05 02:01:17;;;;;;;3.75;2.63;;;;;;;;;;5113714;27;20479;-72
2021/08/05 02:04:05;;;;;;;4.15;2.83;;;;;;;;;;5116793;27;20108;-72
2021/08/05 02:06:38;;;;;;;5.95;3.58;;;;;;;;;;5130679;27;20044;-72
2021/08/05 02:09:14;;;;;;;5.85;3.30;;;;;;;;;;5114550;27;20077;-72
2021/08/05 02:11:43;;;;;;;5.63;3.22;;;;;;;;;;5121550;27;20105;-72
2021/08/05 02:14:13;;;;;;;6.03;3.53;;;;;;;;;;5127656;27;20420;-72
2021/08/05 02:16:41;;;;;;;6.25;3.20;;;;;;;;;;5125412;27;20027;-72
2021/08/05 02:19:07;;;;;;;13.18;3.50;;;;;;;;;;5114331;27;20024;-72
2021/08/05 02:21:33;;;;;;;7.57;4.03;;;;;;;;;;5114620;27;20079;-72
2021/08/05 02:24:00;;;;;;;6.43;3.45;;;;;;;;;;5112862;27;20034;-72
2021/08/05 02:26:26;;;;;;;6.88;3.33;;;;;;;;;;5115386;27;20655;-72
2021/08/05 02:28:52;;;;;;;7.93;3.50;;;;;;;;;;5132900;27;20080;-72
2021/08/05 02:31:18;;;;;;;5.07;3.10;;;;;;;;;;5133108;27;20475;-72
2021/08/05 02:33:45;;;;;;;6.65;3.40;;;;;;;;;;5120929;27;20098;-72
2021/08/05 02:36:11;;;;;;;5.72;3.58;;;;;;;;;;5132780;27;20023;-72
2021/08/05 02:38:36;;;;;;;4.45;3.03;;;;;;;;;;5132138;27;20106;-72
2021/08/05 02:41:05;;;;;;;11.43;4.18;;;;;;;;;;5133110;27;20023;-72
2021/08/05 02:43:32;;;;;;;4.85;3.17;;;;;;;;;;5121308;27;20030;-72
2021/08/05 02:45:59;;;;;;;5.82;3.13;;;;;;;;;;5125527;27;20066;-72
2021/08/05 02:48:25;;;;;;;4.80;2.72;;;;;;;;;;5114138;27;20043;-72
2021/08/05 02:50:54;;;;;;;8.15;3.22;;;;;;;;;;5112699;28;20023;-72
2021/08/05 02:53:19;;;;;;;7.30;3.15;;;;;;;;;;5111338;28;20027;-72
2021/08/05 02:55:45;;;;;;;5.07;3.35;;;;;;;;;;5119381;27;20019;-72
2021/08/05 02:58:12;;;;;;;5.57;3.03;;;;;;;;;;5112291;28;20080;-72
2021/08/05 03:00:38;;;;;;;6.88;3.28;;;;;;;;;;5111052;28;20027;-72
2021/08/05 03:03:04;;;;;;;4.97;3.30;;;;;;;;;;5110257;28;20063;-72
2021/08/05 03:05:29;;;;;;;6.60;3.45;;;;;;;;;;5112333;28;20038;-72
2021/08/05 03:07:55;;;;;;;7.35;3.40;;;;;;;;;;5112000;28;20370;-72
2021/08/05 03:10:20;;;;;;;7.10;3.67;;;;;;;;;;5112011;28;20127;-71
2021/08/05 03:12:46;;;;;;;7.72;3.08;;;;;;;;;;5111668;28;20106;-72
2021/08/05 03:15:12;;;;;;;7.72;3.30;;;;;;;;;;5112204;28;20027;-72
2021/08/05 03:17:37;;;;;;;5.25;3.13;;;;;;;;;;5112671;27;20028;-72
2021/08/05 03:20:04;;;;;;;7.15;3.22;;;;;;;;;;5111960;28;20023;-72
2021/08/05 03:22:30;;;;;;;6.05;2.75;;;;;;;;;;5111981;28;20019;-72
2021/08/05 03:24:55;;;;;;;4.68;2.92;;;;;;;;;;5111883;28;20499;-72
2021/08/05 03:27:20;;;;;;;5.78;2.78;;;;;;;;;;5111463;28;20027;-72
2021/08/05 03:29:46;;;;;;;4.00;2.60;;;;;;;;;;5111700;28;20110;-72
2021/08/05 03:32:11;;;;;;;4.72;2.10;;;;;;;;;;5117075;27;20028;-72
2021/08/05 03:34:36;;;;;;;3.95;2.33;;;;;;;;;;5111634;28;20386;-72
2021/08/05 03:37:02;;;;;;;9.25;2.55;;;;;;;;;;5111337;28;20287;-72
2021/08/05 03:39:28;;;;;;;6.20;2.92;;;;;;;;;;5111628;28;20054;-72
2021/08/05 03:41:53;;;;;;;5.60;3.03;;;;;;;;;;5111444;28;20023;-72
2021/08/05 03:44:18;;;;;;;6.50;3.42;;;;;;;;;;5112167;28;20110;-72
2021/08/05 03:46:44;;;;;;;6.70;3.00;;;;;;;;;;5111202;28;20024;-72
2021/08/05 03:49:10;;;;;;;8.45;2.95;;;;;;;;;;5111015;28;20038;-72
2021/08/05 03:51:35;;;;;;;6.13;2.80;;;;;;;;;;5111237;28;20493;-72
2021/08/05 03:54:01;;;;;;;7.65;2.85;;;;;;;;;;5111283;28;20016;-72
2021/08/05 03:56:26;;;;;;;4.85;2.92;;;;;;;;;;5111341;28;20047;-72
2021/08/05 03:58:52;;;;;;;3.92;2.70;;;;;;;;;;5111598;28;20532;-72
2021/08/05 04:01:17;;;;;;;4.68;2.78;;;;;;;;;;5110862;28;20379;-72
2021/08/05 04:03:43;;;;;;;3.63;2.42;;;;;;;;;;5111773;28;20112;-73
2021/08/05 04:06:08;;;;;;;4.65;3.10;;;;;;;;;;5114792;27;20023;-72
2021/08/05 04:08:34;;;;;;;8.02;3.45;;;;;;;;;;5111523;28;20100;-72
2021/08/05 04:11:00;;;;;;;8.50;3.95;;;;;;;;;;5110774;28;20016;-72
2021/08/05 04:13:25;;;;;;;6.85;3.80;;;;;;;;;;5110736;27;20016;-72
2021/08/05 04:15:51;;;;;;;7.80;3.80;;;;;;;;;;5110761;28;20068;-72
2021/08/05 04:18:16;;;;;;;5.38;3.22;;;;;;;;;;5113336;27;20073;-72
2021/08/05 04:20:41;;;;;;;5.80;3.55;;;;;;;;;;5110479;28;20022;-72
2021/08/05 04:23:07;;;;;;;6.70;3.20;;;;;;;;;;5110605;28;20020;-72
2021/08/05 04:25:33;;;;;;;9.70;3.88;;;;;;;;;;5110788;28;20027;-72
2021/08/05 04:27:58;;;;;;;7.50;3.83;;;;;;;;;;5110953;28;20047;-72
2021/08/05 04:30:25;;;;;;;6.25;3.90;;;;;;;;;;5110562;28;20031;-72
2021/08/05 04:32:51;;;;;;;7.22;4.35;;;;;;;;;;5110838;28;20066;-72
2021/08/05 04:35:17;;;;;;;9.98;4.82;;;;;;;;;;5110420;28;20406;-72
2021/08/05 04:37:52;;;;;;;10.45;4.78;;;;;;;;;;5104009;28;20801;-72
2021/08/05 04:40:18;;;;;;;7.95;5.18;;;;;;;;;;5100263;28;20028;-72
2021/08/05 04:42:44;;;;;;;8.15;6.00;;;;;;;;;;5110758;28;20015;-72
2021/08/05 04:45:11;;;;;;;8.50;5.68;;;;;;;;;;5110493;28;20016;-72
2021/08/05 04:47:57;;;;;;;8.95;5.88;;;;;;;;;;5119778;28;20395;-72
2021/08/05 04:50:25;;;;;;;7.38;5.80;;;;;;;;;;5130527;28;20515;-71
2021/08/05 04:52:50;;;;;;;14.30;5.68;;;;;;;;;;5121890;28;20048;-71
2021/08/05 04:55:16;;;;;;;9.95;5.88;;;;;;;;;;5127720;28;20474;-71
2021/08/05 04:57:58;;;;;;;8.80;5.85;;;;;;;;;;5130965;28;20104;-71
2021/08/05 05:00:27;;;;;;;8.90;5.72;;;;;;;;;;5127237;28;20098;-71
2021/08/05 05:02:53;;;;;;;7.93;5.15;;;;;;;;;;5124112;28;20033;-71
2021/08/05 05:05:20;;;;;;;8.48;5.85;;;;;;;;;;5113855;28;20238;-71
2021/08/05 05:07:45;;;;;;;9.13;5.88;;;;;;;;;;5127960;28;20023;-71
2021/08/05 05:10:12;;;;;;;9.23;5.57;;;;;;;;;;5110586;28;20069;-71
2021/08/05 05:12:37;;;;;;;12.73;5.75;;;;;;;;;;5116636;28;20050;-71
2021/08/05 05:15:04;;;;;;;9.20;4.75;;;;;;;;;;5118102;28;20477;-71
2021/08/05 05:17:30;;;;;;;6.57;3.80;;;;;;;;;;5118271;28;20115;-71
2021/08/05 05:19:55;;;;;;;5.30;3.53;;;;;;;;;;5110790;28;20027;-71
2021/08/05 05:22:21;;;;;;;4.50;3.15;;;;;;;;;;5111580;28;20103;-71
2021/08/05 05:24:46;;;;;;;4.97;3.08;;;;;;;;;;5110814;28;20032;-71
2021/08/05 05:27:12;;;;;;;4.97;3.38;;;;;;;;;;5114801;27;20110;-71
2021/08/05 05:29:38;;;;;;;5.32;3.25;;;;;;;;;;5123057;27;20352;-71
2021/08/05 05:32:04;;;;;;;3.75;2.80;;;;;;;;;;5129733;27;20030;-71
2021/08/05 05:34:30;;;;;;;5.03;2.70;;;;;;;;;;5129518;27;20035;-71
2021/08/05 05:36:55;;;;;;;2.45;2.08;;;;;;;;;;5124368;27;20622;-71
2021/08/05 05:39:21;;;;;;;3.75;2.03;;;;;;;;;;5119462;27;20116;-71
2021/08/05 05:41:46;;;;;;;3.80;2.20;;;;;;;;;;5118537;27;20416;-72
2021/08/05 05:44:11;;;;;;;4.90;1.40;;;;;;;;;;5119590;27;20487;-72
2021/08/05 05:46:37;;;;;;;3.17;1.50;;;;;;;;;;5126726;27;20053;-71
2021/08/05 05:49:02;;;;;;;1.67;1.25;;;;;;;;;;5122374;27;20040;-71
2021/08/05 05:51:28;;;;;;;2.85;1.42;;;;;;;;;;5131676;27;20023;-71
2021/08/05 05:53:53;;;;;;;1.73;1.50;;;;;;;;;;5129385;27;20016;-72
2021/08/05 05:56:18;;;;;;;1.38;1.20;;;;;;;;;;5120798;27;20062;-72
2021/08/05 05:58:44;;;;;;;2.88;1.27;;;;;;;;;;5133774;27;20038;-71
2021/08/05 06:01:09;;;;;;;3.00;1.17;;;;;;;;;;5132436;27;20038;-71
2021/08/05 06:03:35;;;;;;;1.33;1.10;;;;;;;;;;5118662;27;20526;-71
2021/08/05 06:06:00;;;;;;;1.33;1.08;;;;;;;;;;5114220;27;20062;-72
2021/08/05 06:08:26;;;;;;;1.50;1.10;;;;;;;;;;5119803;27;20023;-72
2021/08/05 06:10:51;;;;;;;2.15;1.20;;;;;;;;;;5128574;27;20536;-73
2021/08/05 06:13:16;;;;;;;1.42;0.98;;;;;;;;;;5131793;27;20022;-71
2021/08/05 06:15:42;;;;;;;1.80;1.13;;;;;;;;;;5115548;27;20510;-72
2021/08/05 06:18:07;;;;;;;1.10;0.90;;;;;;;;;;5121056;27;20285;-73
2021/08/05 06:20:33;;;;;;;4.10;1.10;;;;;;;;;;5127367;27;20026;-73
2021/08/05 06:22:58;;;;;;;1.30;1.10;;;;;;;;;;5123203;27;20368;-73
2021/08/05 06:25:24;;;;;;;1.88;1.27;;;;;;;;;;5130968;27;20058;-72
2021/08/05 06:27:49;;;;;;;1.00;0.90;;;;;;;;;;5132165;27;20037;-73
2021/08/05 06:30:16;;;;;;;1.23;1.05;;;;;;;;;;5133348;27;20061;-72
2021/08/05 06:32:42;;;;;;;1.45;0.95;;;;;;;;;;5126092;27;20475;-73
2021/08/05 06:35:09;;;;;;;2.33;1.20;;;;;;;;;;5122146;27;20034;-73
2021/08/05 06:37:35;;;;;;;0.80;0.80;;;;;;;;;;5132684;27;20035;-72
2021/08/05 06:40:04;;;;;;;0.80;0.80;;;;;;;;;;5133873;27;20023;-72
2021/08/05 06:42:30;;;;;;;1.17;1.00;;;;;;;;;;5133271;27;20023;-72
2021/08/05 06:44:55;;;;;;;1.40;0.80;;;;;;;;;;5133196;27;20081;-72
2021/08/05 06:47:21;;;;;;;1.45;0.85;;;;;;;;;;5132905;27;20118;-72
2021/08/05 06:49:46;;;;;;;1.30;1.00;;;;;;;;;;5133349;27;20027;-72
2021/08/05 06:52:12;;;;;;;0.95;0.70;;;;;;;;;;5133225;27;20019;-72
2021/08/05 06:54:37;;;;;;;1.88;0.80;;;;;;;;;;5133289;27;20107;-72
2021/08/05 06:57:03;;;;;;;0.95;0.80;;;;;;;;;;5131744;27;20073;-72
2021/08/05 06:59:28;;;;;;;2.08;0.70;;;;;;;;;;5116679;27;20063;-72
2021/08/05 07:01:54;;;;;;;0.88;0.60;;;;;;;;;;5113929;27;20383;-71
2021/08/05 07:04:19;;;;;;;0.73;0.63;;;;;;;;;;5119187;27;20026;-72
2021/08/05 07:06:45;;;;;;;1.55;0.70;;;;;;;;;;5113472;28;20360;-72
2021/08/05 07:09:10;;;;;;;1.52;0.77;;;;;;;;;;5112160;28;20043;-72
2021/08/05 07:11:36;;;;;;;1.55;1.00;;;;;;;;;;5121910;27;20095;-72
2021/08/05 07:14:02;;;;;;;2.15;0.90;;;;;;;;;;5133458;27;20034;-72
2021/08/05 07:16:27;;;;;;;1.60;0.68;;;;;;;;;;5121245;27;20038;-72
2021/08/05 07:18:53;;;;;;;0.77;0.75;;;;;;;;;;5125365;27;20118;-71
2021/08/05 07:21:18;;;;;;;1.80;0.82;;;;;;;;;;5113984;28;20473;-71
2021/08/05 07:23:49;;;;;;;0.80;0.65;;;;;;;;;;5128788;27;20023;-71
2021/08/05 07:26:15;;;;;;;2.65;0.88;;;;;;;;;;5123928;27;20024;-71
2021/08/05 07:28:41;;;;;;;0.77;0.60;;;;;;;;;;5129300;27;20031;-73
2021/08/05 07:31:06;;;;;;;2.40;1.58;;;;;;;;;;5124425;27;20110;-73
2021/08/05 07:33:31;;;;;;;0.68;0.60;;;;;;;;;;5129018;27;20038;-72
2021/08/05 07:35:57;;;;;;;2.25;0.88;;;;;;;;;;5115276;27;20052;-73
2021/08/05 07:38:23;;;;;;;1.05;0.65;;;;;;;;;;5125232;27;20023;-76
2021/08/05 07:40:49;;;;;;;1.00;0.70;;;;;;;;;;5127973;27;20023;-75
2021/08/05 07:43:14;;;;;;;2.63;0.90;;;;;;;;;;5120029;27;20024;-76
2021/08/05 07:45:40;;;;;;;1.38;0.70;;;;;;;;;;5128715;27;20027;-78
2021/08/05 07:48:11;;;;;;;0.82;0.70;;;;;;;;;;5131224;27;20061;-78
2021/08/05 07:50:37;;;;;;;1.60;0.65;;;;;;;;;;5130701;27;20023;-75
2021/08/05 07:53:03;;;;;;;2.38;0.60;;;;;;;;;;5131307;27;20031;-77
2021/08/05 07:55:31;;;;;;;2.10;0.70;;;;;;;;;;5126859;27;20421;-76
2021/08/05 07:57:57;;;;;;;1.05;0.73;;;;;;;;;;5115982;27;20027;-76
2021/08/05 08:00:22;;;;;;;0.55;0.50;;;;;;;;;;5121238;27;20271;-76
2021/08/05 08:02:48;;;;;;;1.30;0.68;;;;;;;;;;5113881;28;20414;-77
2021/08/05 08:05:14;;;;;;;2.95;0.80;;;;;;;;;;5114853;27;20054;-77
2021/08/05 08:07:41;;;;;;;1.17;0.95;;;;;;;;;;5117382;27;20028;-76
2021/08/05 08:10:07;;;;;;;2.30;0.85;;;;;;;;;;5120584;27;20015;-78
2021/08/05 08:12:33;;;;;;;0.88;0.68;;;;;;;;;;5125361;27;20072;-77
2021/08/05 08:14:58;;;;;;;1.00;0.70;;;;;;;;;;5123512;27;20039;-76
2021/08/05 08:17:24;;;;;;;1.90;0.80;;;;;;;;;;5118628;27;20094;-77
2021/08/05 08:19:49;;;;;;;1.83;0.88;;;;;;;;;;5125552;27;20416;-77
2021/08/05 08:22:15;;;;;;;0.70;0.70;;;;;;;;;;5124262;27;20474;-77
2021/08/05 08:24:41;;;;;;;1.17;0.77;;;;;;;;;;5120759;27;20031;-76
2021/08/05 08:27:06;;;;;;;2.38;0.80;;;;;;;;;;5119220;27;20023;-77
2021/08/05 08:29:32;;;;;;;0.65;0.63;;;;;;;;;;5119636;27;20467;-77
2021/08/05 08:31:57;;;;;;;1.20;0.50;;;;;;;;;;5130281;27;20694;-77
2021/08/05 08:34:23;;;;;;;1.23;0.70;;;;;;;;;;5127727;27;20420;-75
2021/08/05 08:36:48;;;;;;;0.80;0.70;;;;;;;;;;5124981;27;20371;-76
2021/08/05 08:39:14;;;;;;;1.05;0.75;;;;;;;;;;5115362;28;20019;-75
2021/08/05 08:41:42;;;;;;;0.68;0.68;;;;;;;;;;5121732;28;20032;-72
2021/08/05 08:44:08;;;;;;;3.13;1.10;;;;;;;;;;5122364;27;20102;-71
2021/08/05 08:46:35;;;;;;;1.60;0.90;;;;;;;;;;5132936;27;20419;-70
2021/08/05 08:49:02;;;;;;;1.10;0.80;;;;;;;;;;5123174;28;20103;-70
2021/08/05 08:51:31;;;;;;;6.00;4.50;;;;;;;;;;5112857;28;20546;-70
2021/08/05 08:54:00;;;;;;;1.75;1.00;;;;;;;;;;5128263;28;20019;-71
2021/08/05 08:56:28;;;;;;;1.30;0.90;;;;;;;;;;5133010;28;20090;-71
2021/08/05 08:58:53;;;;;;;0.88;0.70;;;;;;;;;;5132883;28;20027;-67
2021/08/05 09:01:19;;;;;;;0.70;0.70;;;;;;;;;;5135215;27;20076;-68
2021/08/05 09:03:45;;;;;;;1.00;0.60;;;;;;;;;;5137040;27;20046;-67
2021/08/05 09:06:11;;;;;;;1.70;0.90;;;;;;;;;;5130727;27;20027;-68
2021/08/05 09:08:40;;;;;;;2.65;0.80;;;;;;;;;;5136581;27;20031;-68
2021/08/05 09:11:05;;;;;;;1.77;1.58;;;;;;;;;;5137240;27;20102;-68
2021/08/05 09:13:31;;;;;;;1.75;0.70;;;;;;;;;;5136463;27;20527;-68
2021/08/05 09:15:56;;;;;;;3.03;0.80;;;;;;;;;;5136895;27;20051;-67
2021/08/05 09:18:36;;;;;;;1.15;0.70;;;;;;;;;;5136779;27;20021;-68
2021/08/05 09:21:18;;;;;;;1.63;0.80;;;;;;;;;;5128998;27;20019;-68
2021/08/05 09:23:50;;;;;;;1.25;0.77;;;;;;;;;;5113921;28;20043;-69
2021/08/05 09:26:30;;;;;;;1.38;0.70;;;;;;;;;;5128083;27;20023;-69
2021/08/05 09:29:07;;;;;;;1.10;0.70;;;;;;;;;;5135082;27;20058;-68
2021/08/05 09:31:34;;;;;;;2.67;1.20;;;;;;;;;;5135789;27;20112;-68
2021/08/05 09:34:08;;;;;;;2.85;1.00;;;;;;;;;;5135328;27;20402;-68
2021/08/05 09:36:35;;;;;;;3.38;0.90;;;;;;;;;;5135582;27;20092;-68
2021/08/05 09:39:12;;;;;;;2.40;0.90;;;;;;;;;;5125267;27;20030;-68
2021/08/05 09:41:57;;;;;;;1.10;0.70;;;;;;;;;;5114801;28;20039;-68
2021/08/05 09:44:23;;;;;;;4.25;1.00;;;;;;;;;;5117158;27;20389;-67
2021/08/05 09:47:02;;;;;;;2.33;0.88;;;;;;;;;;5133658;27;20079;-68
2021/08/05 09:49:29;;;;;;;1.58;0.73;;;;;;;;;;5135396;27;20054;-68
2021/08/05 09:51:59;;;;;;;1.92;0.88;;;;;;;;;;5135131;27;20023;-69
2021/08/05 09:54:38;;;;;;;1.42;0.70;;;;;;;;;;5134134;27;20080;-68
2021/08/05 09:57:04;;;;;;;3.08;0.90;;;;;;;;;;5127251;27;20034;-69
2021/08/05 09:59:29;;;;;;;1.77;0.80;;;;;;;;;;5115563;28;20024;-69
2021/08/05 10:02:00;;;;;;;1.40;0.90;;;;;;;;;;5129550;27;20027;-68
2021/08/05 10:04:31;;;;;;;2.17;0.80;;;;;;;;;;5135375;27;20102;-68
2021/08/05 10:07:02;;;;;;;2.83;0.80;;;;;;;;;;5126185;27;20026;-69
2021/08/05 10:09:28;;;;;;;1.15;0.80;;;;;;;;;;5135602;27;20444;-68
2021/08/05 10:12:09;;;;;;;1.98;1.05;;;;;;;;;;5134981;27;20035;-71
2021/08/05 10:14:34;;;;;;;2.80;0.88;;;;;;;;;;5125921;27;20121;-69
2021/08/05 10:17:03;;;;;;;0.93;0.63;;;;;;;;;;5134469;27;20111;-69
2021/08/05 10:19:29;;;;;;;1.17;0.60;;;;;;;;;;5134177;27;20034;-70
2021/08/05 10:21:55;;;;;;;1.05;0.70;;;;;;;;;;5134087;27;20080;-70
2021/08/05 10:24:21;;;;;;;4.97;0.80;;;;;;;;;;5132965;27;20011;-70
2021/08/05 10:26:47;;;;;;;0.95;0.73;;;;;;;;;;5134529;27;20037;-68
2021/08/05 10:29:15;;;;;;;1.27;0.82;;;;;;;;;;5133987;27;20023;-69
2021/08/05 10:31:44;;;;;;;1.95;1.08;;;;;;;;;;5133188;27;20110;-70
2021/08/05 10:34:11;;;;;;;1.00;0.70;;;;;;;;;;5134001;27;20019;-70
2021/08/05 10:36:37;;;;;;;1.23;0.85;;;;;;;;;;5133326;27;20490;-70
2021/08/05 10:39:04;;;;;;;1.17;0.90;;;;;;;;;;5133771;27;20105;-69
2021/08/05 10:41:33;;;;;;;0.75;0.70;;;;;;;;;;5134071;27;20466;-70
2021/08/05 10:44:02;;;;;;;0.82;0.77;;;;;;;;;;5133794;27;20370;-71
2021/08/05 10:46:33;;;;;;;2.05;1.05;;;;;;;;;;5130436;27;20456;-71
2021/08/05 10:49:06;;;;;;;1.42;0.73;;;;;;;;;;5133587;27;20039;-69
2021/08/05 10:51:35;;;;;;;;;;;;;;;;;;5133034;27;20031;-71
2021/08/05 10:54:01;;;;;;;2.10;0.85;;;;;;;;;;5133993;27;19916;-68
2021/08/05 10:56:31;;;;;;;1.60;0.73;;;;;;;;;;5133733;27;20106;-69
2021/08/05 10:59:00;;;;;;;1.90;0.90;;;;;;;;;;5134639;27;20068;-70
2021/08/05 11:01:52;;;;;;;1.10;0.80;;;;;;;;;;5134247;27;20481;-71
2021/08/05 11:04:33;;;;;;;1.95;0.95;;;;;;;;;;5134011;27;20026;-70
2021/08/05 11:07:24;;;;;;;1.42;0.75;;;;;;;;;;5134061;27;20023;-70
2021/08/05 11:09:51;;;;;;;1.30;0.90;;;;;;;;;;5134046;27;20463;-70
2021/08/05 11:12:40;;;;;;;2.00;0.90;;;;;;;;;;5133642;27;20023;-69
2021/08/05 11:15:29;;;;;;;1.23;0.80;;;;;;;;;;5133853;27;20023;-70
2021/08/05 11:18:21;;;;;;;1.35;0.90;;;;;;;;;;5133952;27;20015;-72
2021/08/05 11:20:52;;;;;;;2.60;1.13;;;;;;;;;;5130891;27;20497;-70
2021/08/05 11:23:37;;;;;;;1.83;0.77;;;;;;;;;;5133850;27;20390;-71
2021/08/05 11:26:09;;;;;;;1.23;0.80;;;;;;;;;;5133674;27;20144;-70
2021/08/05 11:28:52;;;;;;;1.58;1.13;;;;;;;;;;5133529;27;20130;-71
2021/08/05 11:31:31;;;;;;;2.25;0.80;;;;;;;;;;5133552;27;20494;-71
2021/08/05 11:34:02;;;;;;;1.65;0.90;;;;;;;;;;5133418;27;20023;-71
2021/08/05 11:36:35;;;;;;;1.63;0.90;;;;;;;;;;5133368;27;20023;-70
2021/08/05 11:39:27;;;;;;;2.13;1.00;;;;;;;;;;5133211;27;20015;-69
2021/08/05 11:41:56;;;;;;;1.10;0.80;;;;;;;;;;5133163;27;20022;-69
2021/08/05 11:44:56;;;;;;;2.55;0.90;;;;;;;;;;5133409;27;20018;-70
2021/08/05 11:47:29;;;;;;;1.55;1.00;;;;;;;;;;5069173;28;20095;-70
2021/08/05 11:50:06;;;;;;;2.45;0.90;;;;;;;;;;5106020;28;20043;-70
2021/08/05 11:52:33;;;;;;;2.70;0.90;;;;;;;;;;5112324;28;20026;-69
2021/08/05 11:55:01;;;;;;;3.20;1.00;;;;;;;;;;5112567;28;20023;-70
2021/08/05 11:57:28;;;;;;;1.77;1.00;;;;;;;;;;5112426;28;20024;-71
2021/08/05 11:59:56;;;;;;;1.80;1.00;;;;;;;;;;5112338;28;20030;-70
2021/08/05 12:02:26;;;;;;;2.35;0.77;;;;;;;;;;5112379;28;20081;-70
2021/08/05 12:04:56;;;;;;;1.02;0.80;;;;;;;;;;5112230;28;20026;-70
2021/08/05 12:07:26;;;;;;;1.30;0.85;;;;;;;;;;5112113;28;20463;-72
2021/08/05 12:10:00;;;;;;;1.65;0.80;;;;;;;;;;5112321;28;20023;-71
2021/08/05 12:12:28;;;;;;;2.25;0.98;;;;;;;;;;5112047;28;20024;-70
2021/08/05 12:14:58;;;;;;;3.53;0.70;;;;;;;;;;5112147;28;20023;-72
2021/08/05 12:17:35;;;;;;;2.22;0.70;;;;;;;;;;5112239;28;20358;-71
2021/08/05 12:20:04;;;;;;;1.63;1.13;;;;;;;;;;5112108;28;20023;-71
2021/08/05 12:22:35;;;;;;;1.30;0.80;;;;;;;;;;5093657;28;20103;-72
2021/08/05 12:25:05;;;;;;;1.95;0.80;;;;;;;;;;5112079;28;20054;-71
2021/08/05 12:27:31;;;;;;;3.05;1.00;;;;;;;;;;5111791;28;20042;-71
2021/08/05 12:30:09;;;;;;;2.00;0.95;;;;;;;;;;5111965;28;20019;-71
2021/08/05 12:32:58;;;;;;;1.15;0.82;;;;;;;;;;5111556;28;20028;-71
2021/08/05 12:35:23;;;;;;;1.58;0.80;;;;;;;;;;5111479;28;20031;-73
2021/08/05 12:38:06;;;;;;;2.45;0.93;;;;;;;;;;5111688;28;20076;-71
2021/08/05 12:40:33;;;;;;;2.67;0.90;;;;;;;;;;5128097;27;20023;-70
2021/08/05 12:43:03;;;;;;;3.97;0.93;;;;;;;;;;5132127;27;20020;-71
2021/08/05 12:45:32;;;;;;;2.10;0.95;;;;;;;;;;5132011;27;20019;-71
2021/08/05 12:47:58;;;;;;;0.90;0.75;;;;;;;;;;5132027;27;20051;-71
2021/08/05 12:50:23;;;;;;;0.80;0.73;;;;;;;;;;5132309;28;20513;-71
2021/08/05 12:52:49;;;;;;;1.05;0.77;;;;;;;;;;5132279;28;20042;-71
2021/08/05 12:55:14;;;;;;;2.00;0.85;;;;;;;;;;5132119;28;20019;-70
2021/08/05 12:57:40;;;;;;;2.13;0.98;;;;;;;;;;5131980;28;20471;-70
2021/08/05 13:00:29;;;;;;;2.20;0.98;;;;;;;;;;5132210;28;20027;-70
2021/08/05 13:02:59;;;;;;;0.80;0.80;;;;;;;;;;5132000;28;20423;-71
2021/08/05 13:05:25;;;;;;;1.65;0.90;;;;;;;;;;5131929;28;20355;-70
2021/08/05 13:07:53;;;;;;;1.40;0.93;;;;;;;;;;5132011;28;20072;-71
2021/08/05 13:10:28;;;;;;;1.95;0.80;;;;;;;;;;5132033;28;20019;-70
2021/08/05 13:12:54;;;;;;;2.42;1.02;;;;;;;;;;5132100;28;20031;-70
2021/08/05 13:15:34;;;;;;;1.85;0.90;;;;;;;;;;5132291;28;20035;-70
2021/08/05 13:18:01;;;;;;;0.95;0.80;;;;;;;;;;5131946;28;20062;-70
2021/08/05 13:20:31;;;;;;;2.45;0.98;;;;;;;;;;5131852;28;20489;-70
2021/08/05 13:22:58;;;;;;;2.92;0.90;;;;;;;;;;5131872;28;20031;-71
2021/08/05 13:25:37;;;;;;;1.90;0.90;;;;;;;;;;5131720;28;20068;-71
2021/08/05 13:28:09;;;;;;;4.03;1.10;;;;;;;;;;5131922;28;20027;-70
2021/08/05 13:30:34;;;;;;;1.00;0.80;;;;;;;;;;5132018;28;20031;-70
2021/08/05 13:33:00;;;;;;;1.70;0.90;;;;;;;;;;5131817;28;20027;-71
2021/08/05 13:35:25;;;;;;;2.92;0.90;;;;;;;;;;5131789;28;20354;-69
2021/08/05 13:38:04;;;;;;;2.65;1.00;;;;;;;;;;5131613;28;20107;-70
2021/08/05 13:40:32;;;;;;;0.98;0.85;;;;;;;;;;5131580;28;20048;-70
2021/08/05 13:42:58;;;;;;;1.98;1.02;;;;;;;;;;5131746;28;20055;-71
2021/08/05 13:45:23;;;;;;;3.10;1.20;;;;;;;;;;5131627;28;20069;-70
2021/08/05 13:47:50;;;;;;;2.72;1.20;;;;;;;;;;5132419;27;20078;-71
2021/08/05 13:50:24;;;;;;;1.67;1.00;;;;;;;;;;5135554;27;20501;-71
2021/08/05 13:52:50;;;;;;;33.03;2.33;;;;;;;;;;5135312;27;20054;-71
2021/08/05 13:55:17;;;;;;;0.90;0.80;;;;;;;;;;5135433;27;20106;-71
2021/08/05 13:57:43;;;;;;;1.42;0.80;;;;;;;;;;5135271;27;20034;-70
2021/08/05 14:00:09;;;;;;;3.72;0.95;;;;;;;;;;5135331;27;20023;-71
2021/08/05 14:02:35;;;;;;;36.95;2.88;;;;;;;;;;5134935;27;20011;-70
2021/08/05 14:05:04;;;;;;;2.20;0.90;;;;;;;;;;5135282;27;20025;-70
2021/08/05 14:07:30;;;;;;;34.65;3.53;;;;;;;;;;5135110;27;20023;-70
2021/08/05 14:09:56;;;;;;;1.33;0.90;;;;;;;;;;5131946;27;20352;-70
2021/08/05 14:12:22;;;;;;;110.78;12.23;;;;;;;;;;5128141;27;20023;-71
2021/08/05 14:14:47;;;;;;;1.52;0.80;;;;;;;;;;5132475;27;20019;-70
2021/08/05 14:17:13;;;;;;;1.40;1.00;;;;;;;;;;5130965;27;20023;-71
2021/08/05 14:19:39;;;;;;;1.13;0.90;;;;;;;;;;5135467;27;20018;-70
2021/08/05 14:22:06;;;;;;;2.13;0.80;;;;;;;;;;5129107;27;20023;-72
2021/08/05 14:24:32;;;;;;;1.33;0.90;;;;;;;;;;5132022;27;20023;-70
2021/08/05 14:26:57;;;;;;;1.05;0.85;;;;;;;;;;5129055;27;20883;-69
2021/08/05 14:29:24;;;;;;;1.70;0.95;;;;;;;;;;5132900;27;20027;-70
2021/08/05 14:31:49;;;;;;;1.08;0.70;;;;;;;;;;5134244;27;20031;-70
2021/08/05 14:34:15;;;;;;;1.23;1.00;;;;;;;;;;5134715;27;20035;-70
2021/08/05 14:36:40;;;;;;;1.30;1.02;;;;;;;;;;5119564;27;20428;-71
2021/08/05 14:39:06;;;;;;;1.45;0.90;;;;;;;;;;5130704;27;20091;-71
2021/08/05 14:41:33;;;;;;;1.65;1.20;;;;;;;;;;5133756;27;20019;-70
2021/08/05 14:44:10;;;;;;;3.50;1.30;;;;;;;;;;5133445;27;20023;-71
2021/08/05 14:46:39;;;;;;;1.05;0.93;;;;;;;;;;5128811;27;20031;-69
2021/08/05 14:49:05;;;;;;;1.70;1.10;;;;;;;;;;5127053;27;20498;-71
2021/08/05 14:51:30;;;;;;;7.32;3.53;;;;;;;;;;5130452;27;20038;-70